Time;durP1;ratioP1;P1;durP2;ratioP2;P2;SDS_P1;SDS_P2;PMS_P1;PMS_P2;Temp;Humidity;BMP_temperature;BMP_pressure;BME280_temperature;BME280_humidity;BME280_pressure;Samples;Min_cycle;Max_cycle;Signal;HPM_P1;HPM_P2
2021/03/17 00:01:00;;;;;;;14.80;10.32;;;4.70;99.90;;;;;;5092564;28;20056;-70
2021/03/17 00:03:25;;;;;;;13.80;9.82;;;4.80;99.90;;;;;;5092171;28;20032;-69
2021/03/17 00:05:51;;;;;;;11.23;9.40;;;4.70;99.90;;;;;;5092263;28;20035;-69
2021/03/17 00:08:17;;;;;;;12.75;10.05;;;4.80;99.90;;;;;;5092024;28;20089;-69
2021/03/17 00:10:46;;;;;;;11.73;9.48;;;4.70;99.90;;;;;;5091940;28;20052;-69
2021/03/17 00:13:12;;;;;;;13.73;11.20;;;4.70;99.90;;;;;;5092482;28;20020;-68
2021/03/17 00:15:39;;;;;;;12.40;10.57;;;4.70;99.90;;;;;;5092185;28;20418;-69
2021/03/17 00:18:07;;;;;;;12.40;9.43;;;4.70;99.90;;;;;;5092026;28;20487;-69
2021/03/17 00:20:33;;;;;;;14.20;10.18;;;4.70;99.90;;;;;;5092593;28;20484;-69
2021/03/17 00:22:58;;;;;;;12.82;10.70;;;4.70;99.90;;;;;;5091704;28;20028;-69
2021/03/17 00:25:35;;;;;;;11.35;10.02;;;4.70;99.90;;;;;;5092572;28;20076;-69
2021/03/17 00:28:02;;;;;;;12.95;10.95;;;4.60;99.90;;;;;;5092266;28;20024;-68
2021/03/17 00:30:32;;;;;;;13.35;10.60;;;4.60;99.90;;;;;;5091818;28;20093;-69
2021/03/17 00:33:01;;;;;;;12.93;10.43;;;4.60;99.90;;;;;;5092010;28;20028;-69
2021/03/17 00:35:28;;;;;;;13.25;10.23;;;4.60;99.90;;;;;;5097361;28;20028;-70
2021/03/17 00:37:54;;;;;;;15.88;11.18;;;4.60;99.90;;;;;;5099314;28;20020;-68
2021/03/17 00:40:22;;;;;;;21.73;11.55;;;4.50;99.90;;;;;;5106586;28;20134;-68
2021/03/17 00:42:48;;;;;;;13.57;11.23;;;4.50;99.90;;;;;;5092165;28;20510;-68
2021/03/17 00:45:14;;;;;;;14.98;11.50;;;4.50;99.90;;;;;;5091455;28;20032;-68
2021/03/17 00:47:40;;;;;;;14.40;10.90;;;4.40;99.90;;;;;;5091953;28;20012;-69
2021/03/17 00:50:08;;;;;;;13.10;10.65;;;4.50;99.90;;;;;;5092031;28;20035;-69
2021/03/17 00:52:33;;;;;;;14.63;12.05;;;4.50;99.90;;;;;;5091414;28;20061;-68
2021/03/17 00:54:59;;;;;;;15.85;11.23;;;4.40;99.90;;;;;;5092012;28;20028;-71
2021/03/17 00:57:24;;;;;;;14.02;10.60;;;4.40;99.90;;;;;;5092022;28;20451;-69
2021/03/17 00:59:50;;;;;;;15.30;10.55;;;4.40;99.90;;;;;;5090910;28;20422;-68
2021/03/17 01:02:16;;;;;;;12.40;9.70;;;4.40;99.90;;;;;;5092088;28;20040;-68
2021/03/17 01:04:41;;;;;;;10.27;8.95;;;4.40;99.90;;;;;;5091355;28;20016;-68
2021/03/17 01:07:12;;;;;;;9.27;8.27;;;4.40;99.90;;;;;;5091730;28;20074;-68
2021/03/17 01:09:38;;;;;;;9.55;8.50;;;4.40;99.90;;;;;;5091818;28;20040;-68
2021/03/17 01:12:04;;;;;;;10.20;8.50;;;4.40;99.90;;;;;;5090928;28;20024;-69
2021/03/17 01:14:29;;;;;;;12.55;10.00;;;4.40;99.90;;;;;;5091733;28;20028;-68
2021/03/17 01:16:55;;;;;;;13.23;10.60;;;4.50;99.90;;;;;;5091478;28;20082;-68
2021/03/17 01:19:20;;;;;;;12.98;10.70;;;4.50;99.90;;;;;;5094724;28;20031;-68
2021/03/17 01:21:46;;;;;;;19.95;12.73;;;4.50;99.90;;;;;;5095928;28;20016;-68
2021/03/17 01:24:11;;;;;;;17.10;12.90;;;4.50;99.90;;;;;;5098118;28;20102;-68
2021/03/17 01:26:37;;;;;;;18.33;13.82;;;4.60;99.90;;;;;;5096548;28;20050;-69
2021/03/17 01:29:03;;;;;;;19.00;13.82;;;4.60;99.90;;;;;;5105278;28;20027;-68
2021/03/17 01:31:28;;;;;;;17.20;13.32;;;4.70;99.90;;;;;;5113091;28;20024;-68
2021/03/17 01:33:54;;;;;;;17.92;14.20;;;4.70;99.90;;;;;;5110737;28;20016;-68
2021/03/17 01:36:19;;;;;;;19.95;14.00;;;4.70;99.90;;;;;;5100853;28;20027;-70
2021/03/17 01:38:45;;;;;;;19.05;14.02;;;4.80;99.90;;;;;;5107971;28;20111;-69
2021/03/17 01:41:10;;;;;;;19.33;14.38;;;4.80;99.90;;;;;;5095910;28;20020;-69
2021/03/17 01:43:36;;;;;;;16.75;13.70;;;4.70;99.90;;;;;;5095775;28;20016;-68
2021/03/17 01:46:02;;;;;;;17.58;13.20;;;4.80;99.90;;;;;;5109338;28;20026;-68
2021/03/17 01:48:27;;;;;;;11.05;9.90;;;4.80;99.90;;;;;;5094982;28;20062;-68
2021/03/17 01:50:57;;;;;;;10.63;9.55;;;4.80;99.90;;;;;;5095274;28;20503;-69
2021/03/17 01:53:30;;;;;;;10.73;9.63;;;4.60;99.90;;;;;;5095505;28;20031;-69
2021/03/17 01:55:56;;;;;;;10.05;8.48;;;4.80;99.90;;;;;;5094563;28;20036;-69
2021/03/17 01:58:22;;;;;;;8.15;7.35;;;4.80;99.90;;;;;;5095212;28;20103;-68
2021/03/17 02:00:48;;;;;;;8.48;7.68;;;4.80;99.90;;;;;;5095265;28;20460;-69
2021/03/17 02:03:14;;;;;;;9.25;7.47;;;4.80;99.90;;;;;;5108549;28;20490;-69
2021/03/17 02:05:45;;;;;;;8.20;7.40;;;4.70;99.90;;;;;;5095274;28;20027;-69
2021/03/17 02:08:30;;;;;;;8.52;7.63;;;4.80;99.90;;;;;;5094287;28;20028;-68
2021/03/17 02:10:55;;;;;;;8.27;7.18;;;4.80;99.90;;;;;;5094583;28;20048;-69
2021/03/17 02:13:41;;;;;;;12.10;7.28;;;4.80;99.90;;;;;;5094634;28;20023;-68
2021/03/17 02:16:39;;;;;;;7.25;6.55;;;4.80;99.90;;;;;;5094100;28;20059;-68
2021/03/17 02:19:05;;;;;;;8.30;6.85;;;4.70;99.90;;;;;;5094573;28;20028;-68
2021/03/17 02:21:48;;;;;;;6.80;6.20;;;4.80;99.90;;;;;;5094881;28;20066;-68
2021/03/17 02:24:19;;;;;;;7.45;6.35;;;4.80;99.90;;;;;;5094277;28;20042;-69
2021/03/17 02:27:06;;;;;;;7.80;6.95;;;4.70;99.90;;;;;;5094867;28;20385;-68
2021/03/17 02:29:54;;;;;;;8.20;7.40;;;4.80;99.90;;;;;;5093354;28;20039;-68
2021/03/17 02:32:56;;;;;;;7.40;6.68;;;4.80;99.90;;;;;;5094834;28;20057;-69
2021/03/17 02:35:25;;;;;;;9.35;7.85;;;4.90;99.90;;;;;;5094601;28;20076;-69
2021/03/17 02:37:55;;;;;;;8.75;7.85;;;4.90;99.90;;;;;;5093494;28;20035;-68
2021/03/17 02:40:33;;;;;;;7.97;7.18;;;4.90;99.90;;;;;;5094397;28;20115;-69
2021/03/17 02:43:17;;;;;;;7.65;6.88;;;4.90;99.90;;;;;;5094166;28;20085;-68
2021/03/17 02:45:47;;;;;;;8.18;7.25;;;4.90;99.90;;;;;;5094375;28;20031;-68
2021/03/17 02:48:25;;;;;;;7.67;6.90;;;5.00;99.90;;;;;;5094169;28;20023;-69
2021/03/17 02:50:54;;;;;;;7.90;7.18;;;5.00;99.90;;;;;;5093302;28;20513;-69
2021/03/17 02:53:24;;;;;;;8.10;7.18;;;5.00;99.90;;;;;;5094530;28;20107;-68
2021/03/17 02:55:59;;;;;;;7.53;6.77;;;5.00;99.90;;;;;;5094025;28;20117;-69
2021/03/17 02:58:26;;;;;;;8.98;7.90;;;5.00;99.90;;;;;;5093667;28;20028;-69
2021/03/17 03:00:57;;;;;;;9.57;8.57;;;5.00;99.90;;;;;;5093827;28;20025;-69
2021/03/17 03:03:27;;;;;;;8.40;7.50;;;5.00;99.90;;;;;;5094044;28;20024;-69
2021/03/17 03:05:55;;;;;;;9.63;8.40;;;5.00;99.90;;;;;;5093198;28;20040;-68
2021/03/17 03:08:25;;;;;;;9.10;7.80;;;5.00;99.90;;;;;;5093991;28;20029;-69
2021/03/17 03:10:51;;;;;;;8.25;7.35;;;5.00;99.90;;;;;;5093315;28;20052;-69
2021/03/17 03:13:18;;;;;;;7.60;6.80;;;5.00;99.90;;;;;;5093339;28;20157;-69
2021/03/17 03:15:45;;;;;;;9.38;8.40;;;5.10;99.90;;;;;;5094874;28;20425;-68
2021/03/17 03:18:12;;;;;;;8.80;7.57;;;5.10;99.90;;;;;;5095434;28;20024;-69
2021/03/17 03:20:39;;;;;;;9.18;7.78;;;5.10;99.90;;;;;;5096170;28;20016;-69
2021/03/17 03:23:05;;;;;;;7.63;6.78;;;5.10;99.90;;;;;;5094261;28;20113;-68
2021/03/17 03:25:31;;;;;;;7.93;7.13;;;5.10;99.90;;;;;;5094690;28;20123;-68
2021/03/17 03:27:58;;;;;;;10.20;7.57;;;5.10;99.90;;;;;;5093664;28;20027;-69
2021/03/17 03:30:27;;;;;;;11.27;7.18;;;5.10;99.90;;;;;;5093359;28;20059;-69
2021/03/17 03:32:56;;;;;;;7.03;5.50;;;5.10;99.90;;;;;;5092817;28;20012;-69
2021/03/17 03:35:22;;;;;;;6.63;5.93;;;5.20;99.90;;;;;;5094779;28;20024;-68
2021/03/17 03:37:49;;;;;;;8.05;5.68;;;5.20;99.90;;;;;;5108744;28;20364;-69
2021/03/17 03:40:18;;;;;;;6.63;5.20;;;5.10;99.90;;;;;;5094510;28;20028;-69
2021/03/17 03:42:46;;;;;;;6.82;5.15;;;5.10;99.90;;;;;;5091300;28;20043;-69
2021/03/17 03:45:14;;;;;;;11.55;5.97;;;5.10;99.90;;;;;;5093285;28;20028;-69
2021/03/17 03:47:41;;;;;;;9.30;5.60;;;5.20;99.90;;;;;;5093040;28;20034;-69
2021/03/17 03:50:09;;;;;;;8.43;5.10;;;5.10;99.90;;;;;;5092687;28;20032;-69
2021/03/17 03:52:39;;;;;;;6.85;5.30;;;5.10;99.90;;;;;;5092698;28;20027;-69
2021/03/17 03:55:24;;;;;;;7.40;5.57;;;5.10;99.90;;;;;;5092126;28;20038;-69
2021/03/17 03:57:51;;;;;;;8.10;5.70;;;5.10;99.90;;;;;;5092873;28;20031;-69
2021/03/17 04:00:21;;;;;;;6.47;5.72;;;5.10;99.90;;;;;;5093289;28;20042;-69
2021/03/17 04:02:50;;;;;;;8.70;5.70;;;5.10;99.90;;;;;;5092024;28;20027;-68
2021/03/17 04:05:22;;;;;;;7.10;5.50;;;5.00;99.90;;;;;;5092875;28;20031;-68
2021/03/17 04:07:50;;;;;;;6.82;5.53;;;5.10;99.90;;;;;;5092018;28;20020;-67
2021/03/17 04:10:17;;;;;;;8.07;5.68;;;5.10;99.90;;;;;;5092361;28;20501;-67
2021/03/17 04:12:45;;;;;;;9.52;5.47;;;5.20;99.90;;;;;;5092907;28;20028;-69
2021/03/17 04:15:14;;;;;;;9.43;5.25;;;5.10;99.90;;;;;;5091617;28;20024;-69
2021/03/17 04:17:49;;;;;;;6.80;4.90;;;5.20;99.90;;;;;;5092688;28;20016;-69
2021/03/17 04:20:17;;;;;;;8.20;4.82;;;5.20;99.90;;;;;;5092592;28;20024;-69
2021/03/17 04:22:44;;;;;;;9.90;4.93;;;5.20;99.90;;;;;;5092112;28;20043;-69
2021/03/17 04:25:12;;;;;;;6.13;5.53;;;5.20;99.90;;;;;;5092197;28;20028;-69
2021/03/17 04:27:42;;;;;;;7.18;5.13;;;5.20;99.90;;;;;;5092544;28;20020;-69
2021/03/17 04:30:09;;;;;;;5.50;5.00;;;5.10;99.90;;;;;;5091281;28;20064;-69
2021/03/17 04:32:42;;;;;;;6.47;5.50;;;5.10;99.90;;;;;;5092311;28;20020;-69
2021/03/17 04:35:10;;;;;;;5.63;5.13;;;5.10;99.90;;;;;;5092275;28;20422;-68
2021/03/17 04:37:36;;;;;;;5.85;4.38;;;5.10;99.90;;;;;;5107872;28;20047;-69
2021/03/17 04:40:03;;;;;;;3.45;2.88;;;5.10;99.90;;;;;;5109125;28;20043;-68
2021/03/17 04:42:30;;;;;;;3.95;3.22;;;5.20;99.90;;;;;;5110349;28;20453;-69
2021/03/17 04:44:56;;;;;;;9.68;2.45;;;5.10;99.90;;;;;;5109271;28;20028;-67
2021/03/17 04:47:23;;;;;;;2.60;2.40;;;5.20;99.90;;;;;;5110232;28;20046;-69
2021/03/17 04:49:50;;;;;;;2.53;2.33;;;5.20;99.90;;;;;;5106641;28;20036;-68
2021/03/17 04:52:18;;;;;;;2.55;2.35;;;5.20;99.90;;;;;;5109538;28;20069;-68
2021/03/17 04:54:44;;;;;;;2.90;2.45;;;5.30;99.90;;;;;;5100919;28;20028;-68
2021/03/17 04:57:13;;;;;;;2.38;2.10;;;5.30;99.90;;;;;;5109565;28;20015;-69
2021/03/17 04:59:41;;;;;;;2.17;1.85;;;5.30;99.90;;;;;;5107731;28;20026;-69
2021/03/17 05:02:10;;;;;;;6.40;2.55;;;5.30;99.90;;;;;;5109822;28;20026;-69
2021/03/17 05:04:37;;;;;;;3.05;2.00;;;5.40;99.90;;;;;;5109803;28;20028;-68
2021/03/17 05:07:03;;;;;;;6.50;2.28;;;5.40;99.90;;;;;;5106775;28;20026;-70
2021/03/17 05:09:28;;;;;;;5.28;2.40;;;5.40;99.90;;;;;;5108608;28;20127;-69
2021/03/17 05:11:56;;;;;;;5.07;3.30;;;5.40;99.90;;;;;;5104260;28;20087;-69
2021/03/17 05:14:23;;;;;;;3.13;2.10;;;5.40;99.90;;;;;;5108847;28;20529;-68
2021/03/17 05:16:51;;;;;;;5.18;2.20;;;5.40;99.90;;;;;;5104890;28;20111;-68
2021/03/17 05:19:17;;;;;;;4.85;2.30;;;5.30;99.90;;;;;;5108399;28;20024;-69
2021/03/17 05:21:43;;;;;;;3.65;2.45;;;5.40;99.90;;;;;;5106530;28;20031;-69
2021/03/17 05:24:11;;;;;;;3.70;2.40;;;5.40;99.90;;;;;;5091081;28;20032;-69
2021/03/17 05:26:37;;;;;;;4.55;2.40;;;5.40;99.90;;;;;;5089318;28;20038;-68
2021/03/17 05:29:04;;;;;;;2.20;1.67;;;5.40;99.90;;;;;;5089714;28;20021;-70
2021/03/17 05:31:32;;;;;;;2.00;1.77;;;5.40;99.90;;;;;;5090758;28;20027;-68
2021/03/17 05:33:58;;;;;;;2.90;1.30;;;5.40;99.90;;;;;;5089835;28;20031;-69
2021/03/17 05:36:23;;;;;;;2.03;1.17;;;5.40;99.90;;;;;;5097810;28;20015;-69
2021/03/17 05:38:54;;;;;;;2.03;1.20;;;5.40;99.90;;;;;;5097504;28;20384;-70
2021/03/17 05:41:20;;;;;;;;;;;5.40;99.90;;;;;;5091296;28;20073;-69
2021/03/17 05:43:47;;;;;;;0.98;0.90;;;5.40;99.90;;;;;;5091425;28;19908;-69
2021/03/17 05:46:14;;;;;;;1.15;0.82;;;5.40;99.90;;;;;;5090643;28;20020;-68
2021/03/17 05:48:41;;;;;;;0.85;0.82;;;5.40;99.90;;;;;;5091651;28;20072;-68
2021/03/17 05:51:08;;;;;;;0.93;0.82;;;5.40;99.90;;;;;;5091124;28;20032;-69
2021/03/17 05:53:34;;;;;;;1.45;0.50;;;5.40;99.90;;;;;;5090982;28;20020;-69
2021/03/17 05:56:03;;;;;;;0.88;0.50;;;5.40;99.90;;;;;;5090915;28;20472;-69
2021/03/17 05:58:29;;;;;;;0.50;0.50;;;5.40;99.90;;;;;;5091623;28;20024;-68
2021/03/17 06:00:54;;;;;;;0.60;0.50;;;5.40;99.90;;;;;;5090420;28;20554;-68
2021/03/17 06:03:21;;;;;;;3.80;0.73;;;5.50;99.90;;;;;;5091432;28;20055;-69
2021/03/17 06:05:47;;;;;;;2.58;0.70;;;5.40;99.90;;;;;;5093483;28;20024;-69
2021/03/17 06:08:24;;;;;;;1.77;0.90;;;5.40;99.90;;;;;;5094136;28;20028;-69
2021/03/17 06:10:50;;;;;;;0.80;0.80;;;5.40;99.90;;;;;;5094819;28;20056;-69
2021/03/17 06:13:16;;;;;;;2.50;0.77;;;5.40;99.90;;;;;;5095318;28;20028;-69
2021/03/17 06:16:03;;;;;;;1.55;0.60;;;5.40;99.90;;;;;;5094706;28;20012;-69
2021/03/17 06:18:30;;;;;;;1.80;0.90;;;5.50;99.90;;;;;;5094687;28;20455;-69
2021/03/17 06:20:56;;;;;;;0.90;0.90;;;5.40;99.90;;;;;;5094718;28;20035;-69
2021/03/17 06:23:22;;;;;;;1.83;0.98;;;5.40;99.90;;;;;;5094357;28;20380;-69
2021/03/17 06:25:49;;;;;;;1.92;1.20;;;5.40;99.90;;;;;;5095112;28;20023;-69
2021/03/17 06:28:15;;;;;;;5.88;1.95;;;5.40;99.90;;;;;;5094270;28;20514;-68
2021/03/17 06:30:47;;;;;;;1.33;1.20;;;5.40;99.90;;;;;;5094648;28;20032;-69
2021/03/17 06:33:12;;;;;;;1.23;1.13;;;5.30;99.90;;;;;;5094579;28;20043;-69
2021/03/17 06:35:38;;;;;;;5.53;1.10;;;5.40;99.90;;;;;;5094633;28;20016;-69
2021/03/17 06:38:04;;;;;;;5.00;1.70;;;5.30;99.90;;;;;;5107961;28;20076;-69
2021/03/17 06:40:36;;;;;;;2.80;2.00;;;5.30;99.90;;;;;;5094758;28;20047;-69
2021/03/17 06:43:07;;;;;;;2.17;1.98;;;5.30;99.90;;;;;;5093509;28;20031;-70
2021/03/17 06:45:46;;;;;;;5.53;2.95;;;5.40;99.90;;;;;;5094841;28;20032;-68
2021/03/17 06:48:19;;;;;;;3.03;2.83;;;5.30;99.90;;;;;;5094256;28;20468;-69
2021/03/17 06:50:45;;;;;;;3.05;2.55;;;5.30;99.90;;;;;;5093818;28;20544;-69
2021/03/17 06:53:11;;;;;;;7.22;2.92;;;5.30;99.90;;;;;;5093945;28;20061;-69
2021/03/17 06:55:37;;;;;;;5.40;3.17;;;5.40;99.90;;;;;;5094204;28;20024;-68
2021/03/17 06:58:05;;;;;;;3.67;3.38;;;5.40;99.90;;;;;;5093281;28;20016;-68
2021/03/17 07:00:33;;;;;;;3.95;3.65;;;5.40;99.90;;;;;;5094264;28;20027;-69
2021/03/17 07:03:03;;;;;;;4.72;3.75;;;5.40;99.90;;;;;;5094109;28;20020;-68
2021/03/17 07:05:46;;;;;;;5.82;4.28;;;5.30;99.90;;;;;;5093833;28;20024;-68
2021/03/17 07:08:26;;;;;;;5.95;4.00;;;5.40;99.90;;;;;;5093726;28;20028;-69
2021/03/17 07:10:55;;;;;;;;;;;5.40;99.90;;;;;;5093277;28;20379;-69
2021/03/17 07:13:20;;;;;;;6.47;4.47;;;5.40;99.90;;;;;;5094084;28;19915;-69
2021/03/17 07:15:54;;;;;;;5.68;4.68;;;5.40;99.90;;;;;;5093803;28;20024;-69
2021/03/17 07:18:25;;;;;;;5.80;3.65;;;5.40;99.90;;;;;;5093291;28;20020;-69
2021/03/17 07:20:56;;;;;;;6.97;5.03;;;5.40;99.90;;;;;;5093894;28;20024;-68
2021/03/17 07:23:27;;;;;;;6.40;4.03;;;5.50;99.90;;;;;;5094832;28;20028;-70
2021/03/17 07:26:20;;;;;;;5.70;4.10;;;5.50;99.90;;;;;;5096509;28;20031;-69
2021/03/17 07:28:51;;;;;;;3.20;2.90;;;5.50;99.90;;;;;;5093986;28;20069;-69
2021/03/17 07:31:27;;;;;;;3.72;2.63;;;5.50;99.90;;;;;;5093857;28;20032;-69
2021/03/17 07:33:54;;;;;;;3.45;3.15;;;5.50;99.90;;;;;;5093529;28;20028;-69
2021/03/17 07:36:31;;;;;;;4.07;3.50;;;5.50;99.90;;;;;;5101280;28;20020;-68
2021/03/17 07:38:59;;;;;;;4.20;3.20;;;5.50;99.90;;;;;;5099819;28;20130;-68
2021/03/17 07:41:25;;;;;;;3.10;2.72;;;5.50;99.90;;;;;;5094268;28;20031;-68
2021/03/17 07:43:54;;;;;;;3.70;2.10;;;5.50;99.90;;;;;;5094893;28;20020;-68
2021/03/17 07:46:22;;;;;;;2.03;1.52;;;5.50;99.90;;;;;;5093780;28;20016;-69
2021/03/17 07:48:49;;;;;;;2.72;1.80;;;5.40;99.90;;;;;;5093397;28;20058;-69
2021/03/17 07:51:19;;;;;;;4.57;2.10;;;5.30;99.90;;;;;;5093317;28;20063;-71
2021/03/17 07:53:51;;;;;;;1.97;1.87;;;5.30;99.90;;;;;;5092898;28;20051;-71
2021/03/17 07:56:20;;;;;;;2.58;1.50;;;5.30;99.90;;;;;;5094775;28;20538;-70
2021/03/17 07:58:50;;;;;;;4.18;2.05;;;5.30;99.90;;;;;;5092868;28;20024;-71
2021/03/17 08:01:17;;;;;;;2.72;1.70;;;5.30;99.90;;;;;;5096020;28;20012;-70
2021/03/17 08:03:45;;;;;;;3.35;1.88;;;5.40;99.90;;;;;;5095440;28;20027;-71
2021/03/17 08:06:14;;;;;;;2.97;2.50;;;5.40;99.90;;;;;;5100960;28;20016;-71
2021/03/17 08:08:41;;;;;;;2.22;1.60;;;5.50;99.90;;;;;;5092625;28;20107;-71
2021/03/17 08:11:08;;;;;;;2.00;1.80;;;5.50;99.90;;;;;;5092700;28;20036;-71
2021/03/17 08:13:35;;;;;;;3.80;2.55;;;5.50;99.90;;;;;;5097892;28;20046;-71
2021/03/17 08:16:01;;;;;;;3.50;2.03;;;5.50;99.90;;;;;;5097716;28;20035;-71
2021/03/17 08:18:32;;;;;;;5.75;2.40;;;5.60;99.90;;;;;;5100131;28;20121;-72
2021/03/17 08:21:02;;;;;;;3.30;2.10;;;5.60;99.90;;;;;;5096357;28;20016;-73
2021/03/17 08:23:45;;;;;;;2.40;2.20;;;5.60;99.90;;;;;;5100919;28;20479;-72
2021/03/17 08:26:36;;;;;;;3.95;1.88;;;5.70;99.90;;;;;;5099771;28;20043;-71
2021/03/17 08:29:02;;;;;;;2.20;2.00;;;5.70;99.90;;;;;;5096051;28;20039;-73
2021/03/17 08:31:37;;;;;;;1.88;1.65;;;5.80;99.90;;;;;;5100114;28;20077;-72
2021/03/17 08:34:20;;;;;;;1.60;1.50;;;5.80;99.90;;;;;;5096689;28;20161;-72
2021/03/17 08:37:13;;;;;;;3.63;1.85;;;5.90;99.90;;;;;;5106664;28;20092;-71
2021/03/17 08:39:41;;;;;;;2.40;1.90;;;5.90;99.90;;;;;;5089163;28;20028;-73
2021/03/17 08:42:11;;;;;;;3.53;2.40;;;6.10;99.90;;;;;;5091782;28;20092;-73
2021/03/17 08:44:39;;;;;;;3.50;2.28;;;6.10;99.90;;;;;;5092721;28;20016;-73
2021/03/17 08:47:34;;;;;;;2.88;1.77;;;6.10;99.90;;;;;;5093556;28;20042;-73
2021/03/17 08:50:20;;;;;;;2.63;1.73;;;6.10;99.90;;;;;;5091839;28;20075;-71
2021/03/17 08:52:48;;;;;;;5.40;1.80;;;6.10;99.90;;;;;;5092499;28;20034;-72
2021/03/17 08:55:15;;;;;;;1.73;1.50;;;6.70;99.90;;;;;;5092493;28;20422;-72
2021/03/17 08:58:06;;;;;;;5.20;1.70;;;6.20;99.90;;;;;;5091839;28;20023;-71
2021/03/17 09:00:53;;;;;;;2.33;1.60;;;6.30;99.90;;;;;;5090989;28;20120;-72
2021/03/17 09:03:38;;;;;;;2.15;1.55;;;6.40;99.90;;;;;;5091368;28;20020;-72
2021/03/17 09:06:28;;;;;;;2.58;1.90;;;6.40;99.90;;;;;;5092155;28;20028;-71
2021/03/17 09:08:54;;;;;;;2.22;1.80;;;6.50;99.90;;;;;;5083125;28;20032;-72
2021/03/17 09:11:28;;;;;;;2.85;1.80;;;6.60;99.90;;;;;;5091115;28;20040;-71
2021/03/17 09:13:55;;;;;;;3.00;1.30;;;6.60;99.90;;;;;;5091733;28;20031;-71
2021/03/17 09:16:21;;;;;;;3.13;1.20;;;6.50;99.90;;;;;;5092226;28;20048;-72
2021/03/17 09:19:10;;;;;;;3.78;1.27;;;6.50;99.90;;;;;;5093774;28;20119;-71
2021/03/17 09:21:41;;;;;;;2.95;1.27;;;6.60;99.90;;;;;;5092953;28;20017;-72
2021/03/17 09:24:38;;;;;;;1.08;0.82;;;6.60;99.90;;;;;;5107835;28;20026;-71
2021/03/17 09:27:07;;;;;;;1.80;1.08;;;6.50;99.90;;;;;;5074451;28;20032;-71
2021/03/17 09:29:34;;;;;;;2.63;0.98;;;6.50;99.90;;;;;;5105464;28;20074;-71
2021/03/17 09:32:02;;;;;;;1.42;0.88;;;6.40;99.90;;;;;;5090644;28;20047;-71
2021/03/17 09:34:37;;;;;;;4.40;1.30;;;6.40;99.90;;;;;;5091689;28;20032;-72
2021/03/17 09:37:07;;;;;;;4.00;1.45;;;6.50;99.90;;;;;;5094941;28;20046;-70
2021/03/17 09:39:34;;;;;;;2.95;0.80;;;6.50;99.90;;;;;;5092980;28;20031;-71
2021/03/17 09:42:00;;;;;;;1.02;0.90;;;6.50;99.90;;;;;;5094938;28;20028;-70
2021/03/17 09:44:26;;;;;;;3.22;0.85;;;6.60;99.90;;;;;;5095545;28;20012;-72
2021/03/17 09:46:53;;;;;;;4.72;1.00;;;6.50;99.90;;;;;;5096957;28;20027;-73
2021/03/17 09:49:27;;;;;;;1.27;0.82;;;6.60;99.90;;;;;;5101026;28;20030;-72
2021/03/17 09:51:58;;;;;;;1.92;0.65;;;6.50;99.90;;;;;;5099417;28;20081;-72
2021/03/17 09:54:27;;;;;;;3.33;0.60;;;6.40;99.90;;;;;;5105594;28;20080;-71
2021/03/17 09:56:57;;;;;;;2.03;0.82;;;6.30;99.90;;;;;;5094578;28;20494;-71
2021/03/17 09:59:30;;;;;;;1.38;0.80;;;6.30;99.90;;;;;;5102799;28;20471;-71
2021/03/17 10:02:02;;;;;;;1.50;0.82;;;6.20;99.90;;;;;;5100786;28;20357;-70
2021/03/17 10:04:29;;;;;;;1.45;1.00;;;6.20;99.90;;;;;;5106478;28;20024;-72
2021/03/17 10:06:56;;;;;;;4.18;1.20;;;6.10;99.90;;;;;;5100039;28;20099;-72
2021/03/17 10:09:24;;;;;;;4.03;1.10;;;6.20;99.90;;;;;;5104585;28;20031;-70
2021/03/17 10:11:57;;;;;;;3.45;0.90;;;6.30;99.90;;;;;;5101402;28;20039;-71
2021/03/17 10:14:24;;;;;;;5.70;1.17;;;6.40;99.90;;;;;;5103184;28;20023;-72
2021/03/17 10:16:50;;;;;;;1.60;0.77;;;6.50;99.90;;;;;;5102330;28;20035;-72
2021/03/17 10:19:16;;;;;;;3.08;0.85;;;6.70;99.90;;;;;;5095013;28;20460;-72
2021/03/17 10:21:43;;;;;;;2.28;0.80;;;6.70;99.90;;;;;;5095746;28;20383;-71
2021/03/17 10:24:10;;;;;;;5.22;1.67;;;6.80;99.90;;;;;;5094360;28;20908;-71
2021/03/17 10:26:37;;;;;;;4.63;0.90;;;6.90;99.90;;;;;;5094235;28;20362;-71
2021/03/17 10:29:06;;;;;;;9.48;1.23;;;6.90;99.90;;;;;;5094799;28;20027;-71
2021/03/17 10:31:36;;;;;;;6.30;1.42;;;7.00;99.90;;;;;;5097852;28;20034;-72
2021/03/17 10:34:14;;;;;;;2.00;1.00;;;7.00;99.90;;;;;;5093822;28;20422;-71
2021/03/17 10:36:40;;;;;;;2.58;1.20;;;6.90;99.90;;;;;;5097206;28;20103;-71
2021/03/17 10:39:06;;;;;;;3.20;0.93;;;6.90;99.90;;;;;;5098290;28;20016;-71
2021/03/17 10:41:43;;;;;;;2.33;0.93;;;6.90;99.90;;;;;;5096567;28;20490;-72
2021/03/17 10:44:17;;;;;;;3.17;1.02;;;7.00;99.90;;;;;;5093538;28;20476;-71
2021/03/17 10:47:06;;;;;;;5.82;1.40;;;7.10;99.90;;;;;;5094145;28;20031;-71
2021/03/17 10:49:34;;;;;;;5.75;1.60;;;7.00;99.90;;;;;;5097681;28;20039;-72
2021/03/17 10:52:01;;;;;;;7.07;1.40;;;7.00;99.90;;;;;;5093568;28;20074;-73
2021/03/17 10:54:47;;;;;;;1.65;1.00;;;7.00;99.90;;;;;;5107075;28;20035;-73
2021/03/17 10:57:23;;;;;;;5.15;1.15;;;6.90;99.90;;;;;;5092567;28;20107;-74
2021/03/17 10:59:49;;;;;;;10.82;0.88;;;7.30;99.90;;;;;;5094060;28;20082;-73
2021/03/17 11:02:19;;;;;;;1.15;0.82;;;6.70;99.90;;;;;;5093673;28;20463;-71
2021/03/17 11:05:13;;;;;;;0.70;0.70;;;6.60;99.90;;;;;;5099842;28;20498;-71
2021/03/17 11:07:56;;;;;;;4.93;1.02;;;6.40;99.90;;;;;;5093765;28;20149;-71
2021/03/17 11:10:43;;;;;;;1.38;0.75;;;6.40;99.90;;;;;;5092561;28;20051;-71
2021/03/17 11:13:08;;;;;;;21.45;3.38;;;6.50;99.90;;;;;;5098586;28;20431;-71
2021/03/17 11:15:45;;;;;;;1.65;1.38;;;6.50;99.90;;;;;;5099624;28;20079;-72
2021/03/17 11:18:19;;;;;;;4.15;0.88;;;6.60;99.90;;;;;;5092683;28;20020;-72
2021/03/17 11:20:45;;;;;;;1.50;0.75;;;6.80;99.90;;;;;;5097132;28;20426;-72
2021/03/17 11:23:23;;;;;;;6.07;0.93;;;6.80;99.90;;;;;;5101999;28;20080;-72
2021/03/17 11:25:50;;;;;;;5.53;0.88;;;7.10;99.90;;;;;;5104355;28;20035;-72
2021/03/17 11:28:20;;;;;;;1.85;0.80;;;7.10;99.90;;;;;;5100577;28;20020;-72
2021/03/17 11:30:50;;;;;;;1.52;0.77;;;7.10;99.90;;;;;;5100815;28;20149;-72
2021/03/17 11:33:16;;;;;;;2.15;0.68;;;7.00;99.90;;;;;;5097394;28;20028;-71
2021/03/17 11:35:45;;;;;;;1.23;0.80;;;7.00;99.90;;;;;;5103081;28;20026;-72
2021/03/17 11:38:11;;;;;;;2.63;0.90;;;7.00;99.90;;;;;;5114492;28;20019;-71
2021/03/17 11:40:38;;;;;;;2.38;0.77;;;6.90;99.90;;;;;;5100635;28;20027;-72
2021/03/17 11:43:08;;;;;;;3.60;0.95;;;6.80;99.90;;;;;;5094812;28;20039;-73
2021/03/17 11:45:34;;;;;;;3.53;0.60;;;6.80;99.90;;;;;;5093369;28;20016;-73
2021/03/17 11:48:00;;;;;;;1.40;0.50;;;7.00;99.90;;;;;;5093100;28;20417;-71
2021/03/17 11:50:25;;;;;;;1.25;0.57;;;7.00;99.90;;;;;;5093625;28;20051;-72
2021/03/17 11:52:51;;;;;;;3.17;0.90;;;7.00;99.90;;;;;;5092612;28;20035;-71
2021/03/17 11:55:18;;;;;;;1.60;0.70;;;7.00;99.90;;;;;;5093547;28;20111;-72
2021/03/17 11:57:44;;;;;;;3.50;0.70;;;7.20;99.90;;;;;;5107982;28;20114;-72
2021/03/17 12:00:10;;;;;;;2.78;0.73;;;7.20;99.90;;;;;;5092635;28;20436;-72
2021/03/17 12:02:36;;;;;;;2.65;0.60;;;7.20;99.90;;;;;;5092659;28;20050;-74
2021/03/17 12:05:01;;;;;;;0.80;0.50;;;7.30;99.90;;;;;;5111735;28;20028;-72
2021/03/17 12:07:28;;;;;;;1.33;0.70;;;7.40;99.90;;;;;;5095685;28;20076;-72
2021/03/17 12:09:55;;;;;;;2.17;0.88;;;7.50;99.90;;;;;;5099658;28;20563;-72
2021/03/17 12:12:21;;;;;;;1.80;0.70;;;7.60;99.90;;;;;;5102908;28;20069;-72
2021/03/17 12:14:47;;;;;;;3.58;1.00;;;7.70;99.90;;;;;;5104366;28;20420;-72
2021/03/17 12:17:12;;;;;;;3.97;0.90;;;7.90;99.90;;;;;;5098825;28;20027;-71
2021/03/17 12:19:38;;;;;;;2.63;0.70;;;7.90;99.90;;;;;;5104141;28;20024;-72
2021/03/17 12:22:03;;;;;;;0.85;0.63;;;7.80;99.90;;;;;;5104045;28;20367;-72
2021/03/17 12:24:29;;;;;;;2.20;0.60;;;7.80;99.90;;;;;;5104439;28;20026;-71
2021/03/17 12:26:54;;;;;;;1.25;0.88;;;7.80;99.90;;;;;;5100898;28;20027;-72
2021/03/17 12:29:20;;;;;;;6.57;1.13;;;7.80;99.90;;;;;;5099448;28;20386;-72
2021/03/17 12:31:46;;;;;;;6.47;1.10;;;7.60;99.90;;;;;;5103628;28;20019;-72
2021/03/17 12:34:11;;;;;;;6.60;1.45;;;7.70;99.90;;;;;;5097863;28;20043;-72
2021/03/17 12:36:37;;;;;;;6.68;1.40;;;7.80;99.90;;;;;;5107828;28;20019;-73
2021/03/17 12:39:04;;;;;;;4.05;1.10;;;7.80;99.90;;;;;;5097463;28;20408;-72
2021/03/17 12:41:30;;;;;;;6.38;1.70;;;7.80;99.90;;;;;;5092154;28;20016;-72
2021/03/17 12:43:55;;;;;;;7.85;1.45;;;7.70;99.90;;;;;;5092353;28;20595;-72
2021/03/17 12:46:21;;;;;;;3.00;0.82;;;7.90;99.90;;;;;;5092428;28;20024;-71
2021/03/17 12:48:47;;;;;;;4.63;0.85;;;8.00;99.90;;;;;;5091729;28;20070;-72
2021/03/17 12:51:12;;;;;;;2.47;1.20;;;8.00;99.90;;;;;;5092016;28;20456;-72
2021/03/17 12:53:38;;;;;;;5.90;0.98;;;8.00;99.90;;;;;;5092718;28;20032;-75
2021/03/17 12:56:05;;;;;;;4.00;1.08;;;8.10;99.90;;;;;;5091424;28;20032;-73
2021/03/17 12:58:31;;;;;;;10.25;1.58;;;8.20;99.90;;;;;;5092569;28;20016;-74
2021/03/17 13:00:58;;;;;;;3.97;1.35;;;8.20;99.90;;;;;;5092099;28;20042;-73
2021/03/17 13:03:23;;;;;;;5.32;1.20;;;8.30;99.90;;;;;;5096432;28;20031;-72
2021/03/17 13:05:49;;;;;;;3.17;1.10;;;8.50;99.90;;;;;;5103438;28;20031;-72
2021/03/17 13:08:15;;;;;;;8.90;1.23;;;8.50;99.90;;;;;;5094769;28;20538;-72